createdAt,value
2018-04-22T14:16:02.097Z,99180.04
2018-04-22T14:18:29.720Z,99171.16
2018-04-22T14:20:57.382Z,99166.75
2018-04-22T14:23:24.931Z,99167.84
2018-04-22T14:25:52.482Z,99167.52
2018-04-22T14:28:20.891Z,99168.23
2018-04-22T14:30:49.010Z,99167.75
2018-04-22T14:33:16.671Z,99167.70
2018-04-22T14:35:44.258Z,99163.44
2018-04-22T14:38:11.807Z,99164.59
2018-04-22T14:40:39.415Z,99166.16
2018-04-22T14:43:07.029Z,99161.88
2018-04-22T14:45:46.379Z,99158.50
2018-04-22T14:48:13.932Z,99153.05
2018-04-22T14:50:42.466Z,99154.37
2018-04-22T14:53:10.995Z,99150.81
2018-04-22T14:55:38.538Z,99145.22
2018-04-22T14:58:06.121Z,99149.10
2018-04-22T15:00:33.978Z,99151.03
2018-04-22T15:03:01.653Z,99140.66
2018-04-22T15:05:29.234Z,99138.48
2018-04-22T15:07:56.823Z,99139.28
2018-04-22T15:10:24.479Z,99142.55
2018-04-22T15:12:52.501Z,99136.66
2018-04-22T15:15:20.155Z,99133.80
2018-04-22T15:17:47.741Z,99131.24
2018-04-22T15:20:15.285Z,99131.14
2018-04-22T15:22:43.166Z,99130.59
2018-04-22T15:25:10.763Z,99121.67
2018-04-22T15:27:38.523Z,99125.86
2018-04-22T15:30:06.631Z,99126.25
2018-04-22T15:32:34.542Z,99121.57
2018-04-22T15:35:02.174Z,99123.47
2018-04-22T15:37:31.121Z,99116.98
2018-04-22T15:39:59.165Z,99120.75
2018-04-22T15:42:27.004Z,99120.75
2018-04-22T15:44:55.642Z,99118.03
2018-04-22T15:47:23.493Z,99118.85
2018-04-22T15:49:51.932Z,99110.30
2018-04-22T15:52:20.214Z,99111.31
2018-04-22T15:54:47.813Z,99116.62
2018-04-22T15:57:16.131Z,99111.57
2018-04-22T15:59:43.738Z,99108.25
2018-04-22T16:02:11.618Z,99108.53
2018-04-22T16:04:39.286Z,99107.30
2018-04-22T16:07:06.891Z,99106.90
2018-04-22T16:09:34.927Z,99101.77
2018-04-22T16:12:03.305Z,99104.05
2018-04-22T16:14:31.016Z,99109.94
2018-04-22T16:16:59.034Z,99110.16
2018-04-22T16:19:26.591Z,99109.05
2018-04-22T16:21:54.725Z,99107.20
2018-04-22T16:24:22.276Z,99114.17
2018-04-22T16:26:50.619Z,99112.98
2018-04-22T16:29:19.054Z,99116.23
2018-04-22T16:31:47.571Z,99113.45
2018-04-22T16:34:15.121Z,99117.55
2018-04-22T16:36:42.938Z,99118.75
2018-04-22T16:39:10.599Z,99122.63
2018-04-22T16:41:38.209Z,99127.49
2018-04-22T16:44:05.818Z,99130.02
2018-04-22T16:46:33.413Z,99133.89
2018-04-22T16:49:01.884Z,99140.63
2018-04-22T16:51:29.437Z,99144.20
2018-04-22T16:53:57.030Z,99146.47
2018-04-22T16:56:24.586Z,99150.03
2018-04-22T16:58:53.126Z,99150.11
2018-04-22T17:01:22.634Z,99159.38
2018-04-22T17:03:50.182Z,99156.39
2018-04-22T17:06:19.430Z,99161.16
2018-04-22T17:08:48.906Z,99165.04
2018-04-22T17:11:16.454Z,99177.17
2018-04-22T17:13:43.997Z,99173.61
2018-04-22T17:16:11.966Z,99179.05
2018-04-22T17:18:39.506Z,99182.98
2018-04-22T17:21:07.161Z,99183.69
2018-04-22T17:23:34.822Z,99188.68
2018-04-22T17:26:02.480Z,99191.35
2018-04-22T17:28:30.926Z,99196.84
2018-04-22T17:30:58.473Z,99194.97
2018-04-22T17:33:26.130Z,99196.42
2018-04-22T17:35:53.683Z,99203.38
2018-04-22T17:38:22.195Z,99210.23
2018-04-22T17:40:51.393Z,99208.05
2018-04-22T17:43:18.945Z,99212.52
2018-04-22T17:45:46.746Z,99213.32
2018-04-22T17:48:14.703Z,99223.44
2018-04-22T17:50:42.293Z,99224.72
2018-04-22T17:53:09.937Z,99232.48
2018-04-22T17:55:37.559Z,99235.00
2018-04-22T17:58:06.158Z,99235.64
2018-04-22T18:00:33.785Z,99245.23
2018-04-22T18:03:01.426Z,99252.56
2018-04-22T18:05:29.699Z,99255.73
2018-04-22T18:07:59.055Z,99268.56
2018-04-22T18:10:26.635Z,99267.80
2018-04-22T18:12:54.232Z,99272.83
2018-04-22T18:15:21.835Z,99279.72
2018-04-22T18:17:49.387Z,99285.37
2018-04-22T18:20:16.973Z,99282.84
2018-04-22T18:22:44.561Z,99292.85
2018-04-22T18:25:12.110Z,99291.56
2018-04-22T18:27:39.711Z,99292.75
2018-04-22T18:30:07.954Z,99293.17
2018-04-22T18:32:36.469Z,99289.28
2018-04-22T18:35:04.079Z,99297.55
2018-04-22T18:37:31.690Z,99302.08
2018-04-22T18:39:59.295Z,99310.52
2018-04-22T18:42:26.846Z,99316.61
2018-04-22T18:44:54.458Z,99319.73
2018-04-22T18:47:22.062Z,99311.55
2018-04-22T18:49:50.478Z,99317.68
2018-04-22T18:52:18.093Z,99324.92
2018-04-22T18:54:45.699Z,99324.13
2018-04-22T18:57:13.306Z,99333.72
2018-04-22T18:59:41.910Z,99330.34
2018-04-22T19:02:09.481Z,99331.72
2018-04-22T19:04:38.019Z,99335.86
2018-04-22T19:07:05.593Z,99337.37
2018-04-22T19:09:33.221Z,99341.76
2018-04-22T19:12:00.791Z,99343.25
2018-04-22T19:14:28.402Z,99344.13
2018-04-22T19:16:56.013Z,99345.38
2018-04-22T19:19:23.608Z,99349.83
2018-04-22T19:21:51.149Z,99355.14
2018-04-22T19:24:18.737Z,99355.92
2018-04-22T19:26:46.375Z,99358.14
2018-04-22T19:29:13.958Z,99359.95
2018-04-22T19:31:41.545Z,99355.55
2018-04-22T19:34:09.179Z,99358.21
2018-04-22T19:36:36.791Z,99359.41
2018-04-22T19:39:04.448Z,99360.44
2018-04-22T19:41:31.998Z,99363.55
2018-04-22T19:43:59.611Z,99364.38
2018-04-22T19:46:27.205Z,99367.19
2018-04-22T19:48:54.879Z,99362.77
2018-04-22T19:51:22.422Z,99363.89
2018-04-22T19:53:50.027Z,99368.80
2018-04-22T19:56:18.189Z,99366.37
2018-04-22T19:58:45.802Z,99376.02
2018-04-22T20:01:13.721Z,99373.48
2018-04-22T20:03:41.314Z,99378.97
2018-04-22T20:06:09.252Z,99378.19
2018-04-22T20:08:36.858Z,99379.12
2018-04-22T20:11:04.405Z,99384.30
2018-04-22T20:13:32.827Z,99379.97
2018-04-22T20:16:01.099Z,99385.27
2018-04-22T20:18:29.547Z,99379.85
2018-04-22T20:20:57.158Z,99384.59
2018-04-22T20:23:25.580Z,99379.66
2018-04-22T20:25:53.599Z,99383.55
2018-04-22T20:28:22.507Z,99392.44
2018-04-22T20:30:50.137Z,99390.48
2018-04-22T20:33:17.684Z,99383.28
2018-04-22T20:35:46.069Z,99383.78
2018-04-22T20:38:13.734Z,99392.16
2018-04-22T20:40:41.332Z,99387.80
2018-04-22T20:43:08.934Z,99387.09
2018-04-22T20:45:36.506Z,99395.36
2018-04-22T20:48:04.728Z,99384.51
2018-04-22T20:50:32.283Z,99392.09
2018-04-22T20:52:59.931Z,99392.21
2018-04-22T20:55:27.478Z,99396.17
2018-04-22T20:57:55.076Z,99398.86
2018-04-22T21:00:22.835Z,99403.48
2018-04-22T21:02:50.445Z,99401.20
2018-04-22T21:05:17.993Z,99407.33
2018-04-22T21:07:45.602Z,99401.04
2018-04-22T21:10:13.305Z,99412.14
2018-04-22T21:12:40.923Z,99414.08
2018-04-22T21:15:08.470Z,99410.10
2018-04-22T21:17:36.062Z,99409.72
2018-04-22T21:20:03.675Z,99404.34
2018-04-22T21:22:31.339Z,99415.27
2018-04-22T21:24:58.945Z,99408.61
2018-04-22T21:27:27.374Z,99409.02
2018-04-22T21:29:54.986Z,99408.97
2018-04-22T21:32:22.597Z,99411.99
2018-04-22T21:34:50.251Z,99412.88
2018-04-22T21:37:18.291Z,99410.87
2018-04-22T21:39:45.943Z,99418.86
2018-04-22T21:42:13.567Z,99423.36
2018-04-22T21:44:41.172Z,99424.10
2018-04-22T21:47:08.713Z,99422.30
2018-04-22T21:49:36.614Z,99424.66
2018-04-22T21:52:04.159Z,99422.86
2018-04-22T21:54:32.513Z,99421.89
2018-04-22T21:57:01.611Z,99425.72
2018-04-22T21:59:29.285Z,99416.81
2018-04-22T22:01:56.835Z,99416.17
2018-04-22T22:04:24.426Z,99411.52
2018-04-22T22:06:53.022Z,99413.22
2018-04-22T22:09:20.613Z,99412.50
2018-04-22T22:11:48.222Z,99410.97
2018-04-22T22:14:15.887Z,99415.67
2018-04-22T22:16:43.437Z,99415.22
2018-04-22T22:19:11.978Z,99417.84
2018-04-22T22:21:39.595Z,99418.44
2018-04-22T22:24:07.203Z,99418.83
2018-04-22T22:26:34.749Z,99417.38
2018-04-22T22:29:02.348Z,99417.84
2018-04-22T22:31:29.958Z,99417.08
2018-04-22T22:33:57.699Z,99420.47
2018-04-22T22:36:25.307Z,99420.59
2018-04-22T22:38:52.895Z,99416.80
2018-04-22T22:41:20.603Z,99424.48
2018-04-22T22:43:48.965Z,99417.74
2018-04-22T22:46:16.590Z,99423.43
2018-04-22T22:48:44.226Z,99419.55
2018-04-22T22:51:11.784Z,99422.95
2018-04-22T22:53:39.370Z,99419.00
2018-04-22T22:56:07.027Z,99418.45
2018-04-22T22:58:34.634Z,99416.23
2018-04-22T23:01:02.246Z,99409.53
2018-04-22T23:03:29.870Z,99410.14
2018-04-22T23:05:57.474Z,99413.41
2018-04-22T23:08:25.018Z,99401.59
2018-04-22T23:10:52.682Z,99396.77
2018-04-22T23:13:20.285Z,99399.95
2018-04-22T23:15:47.893Z,99402.19
2018-04-22T23:18:15.438Z,99406.27
2018-04-22T23:20:43.058Z,99413.30
2018-04-22T23:23:10.707Z,99403.73
2018-04-22T23:25:38.258Z,99404.89
2018-04-22T23:28:05.849Z,99405.66
2018-04-22T23:30:33.503Z,99402.08
2018-04-22T23:33:01.055Z,99397.38
2018-04-22T23:35:28.641Z,99410.32
2018-04-22T23:37:57.188Z,99406.69
2018-04-22T23:40:24.867Z,99408.72
2018-04-22T23:42:52.494Z,99399.87
2018-04-22T23:45:20.042Z,99395.17
2018-04-22T23:47:47.703Z,99397.38
2018-04-22T23:50:15.271Z,99397.39
2018-04-22T23:52:42.936Z,99399.14
2018-04-22T23:55:10.534Z,99394.66
2018-04-22T23:57:38.147Z,99392.92
